Time;durP1;ratioP1;P1;durP2;ratioP2;P2;SDS_P1;SDS_P2;PMS_P1;PMS_P2;Temp;Humidity;BMP_temperature;BMP_pressure;BME280_temperature;BME280_humidity;BME280_pressure;Samples;Min_cycle;Max_cycle;Signal;HPM_P1;HPM_P2
2021/11/22 00:00:15;;;;;;;12.15;4.68;;;4.80;90.80;;;;;;5041626;28;20033;-71
2021/11/22 00:02:41;;;;;;;9.20;3.90;;;4.80;90.80;;;;;;5036075;28;20029;-70
2021/11/22 00:05:07;;;;;;;16.67;4.85;;;4.80;90.80;;;;;;5037476;28;20037;-81
2021/11/22 00:07:33;;;;;;;13.77;5.53;;;4.80;90.70;;;;;;5034473;28;20120;-75
2021/11/22 00:09:59;;;;;;;14.73;4.90;;;4.70;90.60;;;;;;5046071;28;20428;-72
2021/11/22 00:12:26;;;;;;;15.55;5.13;;;4.70;90.60;;;;;;5044995;28;20083;-73
2021/11/22 00:14:52;;;;;;;17.83;5.07;;;4.70;90.70;;;;;;5033918;28;20464;-71
2021/11/22 00:17:17;;;;;;;13.23;4.80;;;4.70;90.70;;;;;;5035590;28;20044;-71
2021/11/22 00:19:43;;;;;;;12.70;4.90;;;4.70;90.50;;;;;;5038015;28;20095;-71
2021/11/22 00:22:09;;;;;;;12.30;4.53;;;4.70;90.50;;;;;;5040336;28;20045;-76
2021/11/22 00:24:34;;;;;;;12.00;4.60;;;4.60;90.50;;;;;;5038150;28;20049;-72
2021/11/22 00:27:00;;;;;;;20.25;5.55;;;4.70;90.50;;;;;;5038410;28;20032;-71
2021/11/22 00:29:26;;;;;;;15.02;5.03;;;4.70;90.50;;;;;;5060064;28;20526;-76
2021/11/22 00:31:53;;;;;;;14.90;4.43;;;4.70;90.50;;;;;;5063089;28;20052;-72
2021/11/22 00:34:19;;;;;;;19.80;4.95;;;4.80;90.40;;;;;;5058581;28;20037;-73
2021/11/22 00:36:45;;;;;;;16.42;4.78;;;4.80;90.20;;;;;;5056838;28;20106;-74
2021/11/22 00:39:11;;;;;;;12.35;4.85;;;4.70;90.10;;;;;;5059341;28;20025;-74
2021/11/22 00:41:37;;;;;;;12.02;4.45;;;4.80;90.20;;;;;;5059549;28;20067;-74
2021/11/22 00:44:03;;;;;;;20.15;4.20;;;4.90;90.00;;;;;;5060548;28;20371;-71
2021/11/22 00:46:28;;;;;;;13.95;3.63;;;4.90;89.90;;;;;;5060402;28;20037;-71
2021/11/22 00:48:54;;;;;;;13.45;4.43;;;4.90;89.70;;;;;;5061620;28;20068;-71
2021/11/22 00:51:20;;;;;;;13.57;3.78;;;4.90;89.40;;;;;;5060117;28;20053;-71
2021/11/22 00:53:47;;;;;;;10.98;3.35;;;4.90;89.50;;;;;;5064771;28;20028;-71
2021/11/22 00:56:16;;;;;;;14.93;4.25;;;4.90;89.30;;;;;;5067191;28;20060;-71
2021/11/22 00:58:45;;;;;;;15.35;4.80;;;4.90;89.50;;;;;;5065854;28;20040;-70
2021/11/22 01:01:11;;;;;;;27.45;3.90;;;4.90;89.40;;;;;;5067754;28;20458;-71
2021/11/22 01:03:36;;;;;;;15.55;3.63;;;4.90;89.30;;;;;;5063510;28;20037;-72
2021/11/22 01:06:02;;;;;;;11.50;3.35;;;4.90;89.30;;;;;;5064784;28;20052;-76
2021/11/22 01:08:28;;;;;;;15.85;3.83;;;4.80;89.50;;;;;;5063574;28;20037;-76
2021/11/22 01:10:54;;;;;;;14.63;3.45;;;4.80;89.50;;;;;;5064569;28;20072;-71
2021/11/22 01:13:20;;;;;;;10.90;3.17;;;4.80;89.60;;;;;;5066683;28;20047;-72
2021/11/22 01:15:45;;;;;;;10.80;3.28;;;4.80;89.70;;;;;;5066214;28;20025;-71
2021/11/22 01:18:11;;;;;;;10.93;2.90;;;4.80;89.60;;;;;;5070691;28;20040;-78
2021/11/22 01:20:37;;;;;;;15.02;3.35;;;4.80;89.60;;;;;;5067223;28;20124;-74
2021/11/22 01:23:08;;;;;;;16.02;3.80;;;4.90;89.80;;;;;;5066810;28;20094;-71
2021/11/22 01:25:36;;;;;;;15.63;3.10;;;4.90;89.70;;;;;;5061652;28;20052;-71
2021/11/22 01:28:03;;;;;;;11.82;3.20;;;4.90;89.60;;;;;;5047973;28;20029;-71
2021/11/22 01:30:29;;;;;;;10.90;2.88;;;4.90;89.70;;;;;;5051466;28;20057;-71
2021/11/22 01:32:54;;;;;;;13.45;2.72;;;4.90;89.80;;;;;;5044396;28;20112;-71
2021/11/22 01:35:20;;;;;;;11.35;2.70;;;5.00;89.80;;;;;;5036391;28;20362;-72
2021/11/22 01:37:47;;;;;;;11.50;2.78;;;5.00;90.00;;;;;;5049288;28;20033;-73
2021/11/22 01:40:16;;;;;;;13.10;3.25;;;5.00;89.90;;;;;;5057857;28;20090;-73
2021/11/22 01:42:43;;;;;;;13.70;3.20;;;5.00;89.90;;;;;;5050632;28;20448;-71
2021/11/22 01:45:13;;;;;;;9.48;3.00;;;5.00;89.90;;;;;;5039377;28;20118;-72
2021/11/22 01:47:40;;;;;;;12.55;3.40;;;4.90;90.00;;;;;;5044223;28;20029;-71
2021/11/22 01:50:08;;;;;;;13.85;3.10;;;4.90;90.00;;;;;;5046573;28;20087;-71
2021/11/22 01:52:33;;;;;;;13.32;3.63;;;4.90;90.20;;;;;;5056295;28;20036;-70
2021/11/22 01:54:59;;;;;;;13.82;2.97;;;4.90;89.90;;;;;;5051030;28;20479;-71
2021/11/22 01:57:25;;;;;;;11.00;3.10;;;4.90;90.10;;;;;;5046940;28;20380;-71
2021/11/22 01:59:51;;;;;;;9.90;3.70;;;4.90;90.20;;;;;;5041948;28;20498;-70
2021/11/22 02:02:17;;;;;;;12.38;3.83;;;4.90;90.30;;;;;;5067139;28;20037;-75
2021/11/22 02:04:42;;;;;;;10.25;2.80;;;4.90;90.20;;;;;;5057001;28;20036;-71
2021/11/22 02:07:09;;;;;;;10.23;3.17;;;4.90;90.30;;;;;;5061597;28;20033;-71
2021/11/22 02:09:35;;;;;;;11.40;3.15;;;4.90;90.30;;;;;;5060593;28;20651;-72
2021/11/22 02:12:01;;;;;;;11.27;3.00;;;4.90;90.40;;;;;;5063570;28;20116;-74
2021/11/22 02:14:27;;;;;;;11.25;3.50;;;4.90;90.50;;;;;;5064252;28;20041;-75
2021/11/22 02:16:53;;;;;;;10.73;3.08;;;4.90;90.60;;;;;;5065298;28;20039;-71
2021/11/22 02:19:19;;;;;;;13.93;3.63;;;4.90;90.60;;;;;;5066245;28;20045;-78
2021/11/22 02:21:46;;;;;;;13.98;3.60;;;4.90;90.50;;;;;;5036101;28;20107;-75
2021/11/22 02:24:12;;;;;;;12.38;3.13;;;5.00;90.50;;;;;;5044248;28;20484;-71
2021/11/22 02:26:38;;;;;;;18.50;4.28;;;5.00;90.40;;;;;;5052292;28;20045;-73
2021/11/22 02:29:05;;;;;;;13.70;3.42;;;5.00;90.50;;;;;;5037332;28;20053;-73
2021/11/22 02:31:31;;;;;;;12.30;3.22;;;5.00;90.60;;;;;;5038507;28;20128;-71
2021/11/22 02:33:57;;;;;;;11.50;3.58;;;5.00;90.50;;;;;;5041438;28;20064;-72
2021/11/22 02:36:24;;;;;;;11.40;2.63;;;5.00;90.60;;;;;;5041686;28;20038;-73
2021/11/22 02:38:49;;;;;;;11.48;3.20;;;5.00;90.60;;;;;;5036865;28;20595;-71
2021/11/22 02:41:16;;;;;;;9.05;3.05;;;5.00;90.60;;;;;;5040944;28;20461;-76
2021/11/22 02:43:45;;;;;;;11.45;2.65;;;5.00;90.70;;;;;;5058438;28;20477;-78
2021/11/22 02:46:12;;;;;;;11.40;3.25;;;5.00;90.70;;;;;;5036524;28;20485;-71
2021/11/22 02:48:38;;;;;;;9.60;2.78;;;4.90;90.70;;;;;;5042078;28;20354;-71
2021/11/22 02:51:05;;;;;;;10.02;2.75;;;4.90;90.80;;;;;;5058753;28;20087;-81
2021/11/22 02:53:32;;;;;;;16.25;3.03;;;4.90;90.70;;;;;;5041552;28;20037;-75
2021/11/22 02:56:06;;;;;;;10.50;2.58;;;4.90;90.60;;;;;;5037126;28;20055;-72
2021/11/22 02:58:32;;;;;;;14.25;3.03;;;4.90;90.70;;;;;;5059056;28;20089;-78
2021/11/22 03:00:58;;;;;;;9.10;3.10;;;4.80;90.80;;;;;;5082001;28;20072;-74
2021/11/22 03:03:32;;;;;;;16.60;2.67;;;4.80;91.00;;;;;;5066947;28;20554;-71
2021/11/22 03:06:08;;;;;;;12.27;2.85;;;4.80;91.20;;;;;;5051018;28;20038;-73
2021/11/22 03:08:35;;;;;;;8.07;2.40;;;4.80;91.10;;;;;;5050627;28;20738;-77
2021/11/22 03:11:01;;;;;;;15.07;3.10;;;4.80;91.10;;;;;;5036978;28;20168;-75
2021/11/22 03:13:27;;;;;;;9.82;2.70;;;4.80;91.00;;;;;;5036537;28;20033;-74
2021/11/22 03:15:53;;;;;;;13.18;3.10;;;4.80;91.20;;;;;;5035457;28;20049;-72
2021/11/22 03:18:19;;;;;;;8.30;2.45;;;4.80;91.30;;;;;;5034294;28;20043;-77
2021/11/22 03:20:44;;;;;;;7.03;2.95;;;4.80;91.30;;;;;;5034719;28;20091;-73
2021/11/22 03:23:10;;;;;;;10.05;2.60;;;4.90;91.20;;;;;;5035460;28;20444;-81
2021/11/22 03:25:36;;;;;;;12.23;3.00;;;4.80;91.10;;;;;;5047647;28;20469;-76
2021/11/22 03:28:02;;;;;;;8.80;2.65;;;4.80;91.10;;;;;;5044233;28;20043;-71
2021/11/22 03:30:28;;;;;;;8.95;2.42;;;4.80;91.30;;;;;;5040530;28;20126;-72
2021/11/22 03:32:53;;;;;;;10.90;2.70;;;4.80;91.20;;;;;;5044366;28;20040;-71
2021/11/22 03:35:19;;;;;;;11.07;2.80;;;4.80;91.00;;;;;;5044697;28;20029;-72
2021/11/22 03:37:46;;;;;;;9.05;2.30;;;4.80;91.10;;;;;;5044018;28;20041;-72
2021/11/22 03:40:13;;;;;;;13.20;2.90;;;4.90;91.00;;;;;;5044961;28;20037;-72
2021/11/22 03:42:54;;;;;;;9.20;2.72;;;4.90;91.10;;;;;;5045360;28;20040;-73
2021/11/22 03:45:20;;;;;;;15.48;2.60;;;4.90;90.90;;;;;;5042868;28;20140;-73
2021/11/22 03:47:46;;;;;;;15.70;2.78;;;5.00;90.80;;;;;;5046144;28;20057;-72
2021/11/22 03:50:12;;;;;;;8.68;2.65;;;5.00;90.70;;;;;;5068131;28;20040;-72
2021/11/22 03:52:37;;;;;;;11.48;2.47;;;5.10;90.30;;;;;;5041101;28;20396;-72
2021/11/22 03:55:04;;;;;;;8.35;2.65;;;5.10;90.20;;;;;;5042124;28;20120;-72
2021/11/22 03:57:29;;;;;;;8.63;2.70;;;5.10;90.10;;;;;;5045036;28;20029;-72
2021/11/22 03:59:57;;;;;;;10.95;2.97;;;5.10;90.10;;;;;;5042118;28;20102;-73
2021/11/22 04:02:23;;;;;;;10.38;3.10;;;5.10;89.90;;;;;;5035878;28;20038;-74
2021/11/22 04:04:49;;;;;;;11.35;3.58;;;5.10;89.80;;;;;;5035641;28;20034;-73
2021/11/22 04:07:14;;;;;;;12.45;3.33;;;5.10;89.80;;;;;;5031707;28;20048;-71
2021/11/22 04:09:40;;;;;;;13.88;3.40;;;5.10;89.90;;;;;;5038584;28;20029;-74
2021/11/22 04:12:06;;;;;;;10.00;3.35;;;5.10;89.90;;;;;;5039793;28;20535;-72
2021/11/22 04:14:32;;;;;;;12.23;4.20;;;5.10;89.80;;;;;;5041326;28;20033;-71
2021/11/22 04:16:58;;;;;;;14.45;4.25;;;5.10;89.80;;;;;;5043031;28;20732;-77
2021/11/22 04:19:23;;;;;;;14.30;3.85;;;5.10;89.60;;;;;;5033569;28;20103;-71
2021/11/22 04:21:49;;;;;;;14.98;4.85;;;5.10;89.60;;;;;;5032091;28;20053;-71
2021/11/22 04:24:15;;;;;;;13.65;5.03;;;5.10;89.50;;;;;;5037099;28;20393;-70
2021/11/22 04:26:41;;;;;;;16.38;4.95;;;5.10;89.30;;;;;;5044016;28;20134;-71
2021/11/22 04:29:06;;;;;;;13.63;4.90;;;5.10;89.40;;;;;;5036764;28;20059;-71
2021/11/22 04:31:32;;;;;;;14.48;5.85;;;5.10;89.40;;;;;;5022904;28;20281;-80
2021/11/22 04:33:58;;;;;;;14.38;5.07;;;5.00;89.50;;;;;;5024566;28;20481;-73
2021/11/22 04:36:24;;;;;;;12.65;4.60;;;5.00;89.50;;;;;;5038225;28;20052;-73
2021/11/22 04:38:49;;;;;;;14.32;4.15;;;5.00;89.70;;;;;;5045421;28;20499;-77
2021/11/22 04:41:16;;;;;;;15.90;4.45;;;5.00;89.40;;;;;;5047402;28;20051;-76
2021/11/22 04:43:41;;;;;;;12.52;4.38;;;5.00;89.50;;;;;;5047972;28;20040;-73
2021/11/22 04:46:07;;;;;;;14.65;4.15;;;5.00;89.60;;;;;;5050612;28;20396;-77
2021/11/22 04:48:33;;;;;;;14.20;4.22;;;5.00;89.40;;;;;;5049800;28;20182;-75
2021/11/22 04:50:58;;;;;;;13.50;4.47;;;5.00;89.60;;;;;;5051882;28;20480;-76
2021/11/22 04:53:24;;;;;;;11.18;3.30;;;5.00;89.50;;;;;;5050283;28;20032;-76
2021/11/22 04:55:50;;;;;;;10.68;2.92;;;5.00;89.50;;;;;;5054857;28;20065;-75
2021/11/22 04:58:16;;;;;;;11.18;2.83;;;5.10;89.30;;;;;;5064327;28;20029;-70
2021/11/22 05:00:42;;;;;;;16.15;3.65;;;5.00;89.20;;;;;;5061809;28;20041;-73
2021/11/22 05:03:08;;;;;;;11.40;3.53;;;5.00;89.30;;;;;;5057561;28;20025;-72
2021/11/22 05:05:34;;;;;;;12.93;3.65;;;5.10;89.30;;;;;;5062934;28;20044;-72
2021/11/22 05:08:06;;;;;;;12.02;4.05;;;5.10;89.10;;;;;;5060139;28;20431;-71
2021/11/22 05:10:45;;;;;;;9.70;4.00;;;5.00;89.20;;;;;;5063284;28;20055;-71
2021/11/22 05:13:13;;;;;;;13.30;3.55;;;5.00;89.40;;;;;;5059735;28;20511;-69
2021/11/22 05:15:40;;;;;;;10.93;3.50;;;5.00;89.40;;;;;;5062429;28;20404;-71
2021/11/22 05:18:07;;;;;;;11.13;3.95;;;5.00;89.60;;;;;;5062438;28;20427;-71
2021/11/22 05:20:34;;;;;;;13.30;3.13;;;5.00;89.60;;;;;;5065258;28;20041;-76
2021/11/22 05:23:00;;;;;;;10.70;3.30;;;5.00;89.60;;;;;;5062707;28;20035;-70
2021/11/22 05:25:26;;;;;;;12.68;3.03;;;5.00;89.60;;;;;;5049879;28;20041;-71
2021/11/22 05:27:52;;;;;;;12.02;4.20;;;4.90;89.50;;;;;;5045505;28;20488;-70
2021/11/22 05:30:22;;;;;;;13.80;4.00;;;4.90;89.70;;;;;;5051578;28;20057;-70
2021/11/22 05:32:47;;;;;;;9.65;3.85;;;4.90;89.60;;;;;;5038519;28;20036;-70
2021/11/22 05:35:13;;;;;;;12.57;3.53;;;4.90;89.70;;;;;;5041457;28;20037;-70
2021/11/22 05:37:41;;;;;;;11.48;3.38;;;4.90;89.70;;;;;;5046161;28;20120;-72
2021/11/22 05:40:07;;;;;;;13.85;3.80;;;4.80;89.80;;;;;;5039363;28;20112;-70
2021/11/22 05:42:33;;;;;;;13.25;4.28;;;4.90;90.00;;;;;;5039287;28;20041;-70
2021/11/22 05:44:59;;;;;;;8.90;3.35;;;4.90;89.90;;;;;;5043211;28;20087;-71
2021/11/22 05:47:25;;;;;;;13.77;4.38;;;4.90;89.80;;;;;;5041050;28;20052;-79
2021/11/22 05:49:51;;;;;;;10.07;3.40;;;4.80;89.90;;;;;;5040034;28;20042;-77
2021/11/22 05:52:18;;;;;;;9.25;3.70;;;4.90;90.10;;;;;;5040171;28;20526;-71
2021/11/22 05:54:54;;;;;;;12.95;3.92;;;4.90;90.10;;;;;;5060465;28;20029;-71
2021/11/22 05:57:20;;;;;;;13.52;3.92;;;4.90;90.00;;;;;;5061995;28;20036;-72
2021/11/22 05:59:46;;;;;;;12.70;3.60;;;4.90;90.10;;;;;;5059906;28;20037;-74
2021/11/22 06:02:12;;;;;;;9.10;3.05;;;4.90;90.10;;;;;;5058426;28;20036;-70
2021/11/22 06:04:38;;;;;;;12.50;3.42;;;4.90;90.20;;;;;;5040515;28;20132;-77
2021/11/22 06:07:04;;;;;;;11.55;3.03;;;4.80;90.30;;;;;;5037084;28;20479;-72
2021/11/22 06:09:30;;;;;;;13.23;3.67;;;4.80;90.30;;;;;;5036901;28;20025;-72
2021/11/22 06:11:56;;;;;;;11.10;3.70;;;4.80;90.40;;;;;;5034906;28;20098;-78
2021/11/22 06:14:22;;;;;;;11.82;4.10;;;4.80;90.50;;;;;;5030767;28;20024;-79
2021/11/22 06:16:48;;;;;;;16.08;4.25;;;4.80;90.60;;;;;;5045452;28;20052;-72
2021/11/22 06:19:13;;;;;;;16.55;6.28;;;4.70;90.50;;;;;;5036879;28;20564;-77
2021/11/22 06:21:39;;;;;;;13.48;6.78;;;4.70;90.50;;;;;;5041052;28;20037;-79
2021/11/22 06:24:05;;;;;;;17.40;6.30;;;4.60;90.60;;;;;;5043734;28;20040;-71
2021/11/22 06:26:32;;;;;;;16.77;6.40;;;4.60;90.70;;;;;;5040244;28;20072;-70
2021/11/22 06:28:59;;;;;;;20.00;6.20;;;4.60;90.80;;;;;;5039559;28;20896;-70
2021/11/22 06:31:26;;;;;;;18.65;7.03;;;4.60;90.70;;;;;;5037102;28;20452;-70
2021/11/22 06:33:52;;;;;;;20.08;6.95;;;4.60;90.80;;;;;;5033472;28;20607;-73
2021/11/22 06:36:18;;;;;;;24.02;8.63;;;4.60;90.80;;;;;;5039645;28;20067;-81
2021/11/22 06:38:43;;;;;;;23.30;8.00;;;4.60;90.80;;;;;;5038224;28;20041;-73
2021/11/22 06:41:09;;;;;;;26.23;9.77;;;4.50;90.90;;;;;;5037607;28;20045;-72
2021/11/22 06:43:35;;;;;;;23.30;7.45;;;4.50;90.90;;;;;;5024739;28;20056;-76
2021/11/22 06:46:00;;;;;;;24.02;8.30;;;4.50;90.80;;;;;;5039084;28;20582;-72
2021/11/22 06:48:26;;;;;;;25.98;9.48;;;4.50;90.90;;;;;;5063030;28;20052;-78
2021/11/22 06:50:52;;;;;;;23.08;8.55;;;4.40;91.00;;;;;;5064067;28;20036;-72
2021/11/22 06:53:22;;;;;;;25.13;13.70;;;4.40;91.00;;;;;;5051208;28;20100;-71
2021/11/22 06:55:51;;;;;;;27.55;11.55;;;4.50;90.90;;;;;;5058317;28;20044;-80
2021/11/22 06:58:17;;;;;;;26.65;9.93;;;4.40;90.80;;;;;;5036951;28;20040;-71
2021/11/22 07:00:43;;;;;;;25.17;9.35;;;4.40;90.90;;;;;;5035503;28;20092;-71
2021/11/22 07:03:09;;;;;;;27.63;9.80;;;4.40;90.80;;;;;;5026292;28;20503;-77
2021/11/22 07:05:35;;;;;;;34.42;10.77;;;4.40;90.90;;;;;;5037248;28;20112;-74
2021/11/22 07:08:04;;;;;;;33.78;11.30;;;4.50;90.70;;;;;;5030872;28;20029;-71
2021/11/22 07:10:30;;;;;;;36.38;11.73;;;4.50;90.60;;;;;;5022781;28;20071;-77
2021/11/22 07:12:56;;;;;;;33.85;11.95;;;4.60;90.50;;;;;;5021250;28;20424;-75
2021/11/22 07:15:22;;;;;;;33.72;11.25;;;4.60;90.40;;;;;;5033620;28;20035;-72
2021/11/22 07:17:51;;;;;;;36.88;12.30;;;4.60;90.30;;;;;;5047029;28;20028;-72
2021/11/22 07:20:18;;;;;;;36.00;10.55;;;4.50;90.20;;;;;;5044439;28;20158;-75
2021/11/22 07:22:44;;;;;;;30.23;10.20;;;4.50;90.30;;;;;;5027306;28;20794;-73
2021/11/22 07:25:10;;;;;;;31.90;10.57;;;4.60;90.30;;;;;;5027804;28;20033;-72
2021/11/22 07:27:36;;;;;;;33.03;10.52;;;4.50;90.20;;;;;;5023687;28;20480;-69
2021/11/22 07:30:05;;;;;;;37.10;12.20;;;4.60;90.40;;;;;;5045400;28;20056;-73
2021/11/22 07:32:30;;;;;;;33.90;11.93;;;4.60;90.10;;;;;;5021096;28;20041;-73
2021/11/22 07:34:57;;;;;;;40.80;12.75;;;4.70;89.90;;;;;;5020946;28;20361;-71
2021/11/22 07:37:24;;;;;;;32.03;11.38;;;4.70;89.80;;;;;;5032087;28;20097;-71
2021/11/22 07:39:50;;;;;;;30.67;10.20;;;4.70;89.60;;;;;;5064586;28;20041;-70
2021/11/22 07:42:16;;;;;;;34.55;10.30;;;4.70;89.40;;;;;;5032199;28;20041;-71
2021/11/22 07:44:42;;;;;;;32.72;10.80;;;4.80;89.20;;;;;;5030340;28;20040;-76
2021/11/22 07:47:09;;;;;;;36.40;10.93;;;4.80;89.00;;;;;;5030899;28;20404;-71
2021/11/22 07:49:34;;;;;;;34.55;12.80;;;4.80;89.00;;;;;;5033591;28;20045;-73
2021/11/22 07:52:00;;;;;;;32.97;11.35;;;4.90;88.80;;;;;;5044916;28;20090;-72
2021/11/22 07:54:26;;;;;;;32.13;11.52;;;4.80;88.70;;;;;;5043957;28;20037;-76
2021/11/22 07:56:52;;;;;;;31.92;10.20;;;4.90;88.70;;;;;;5035190;28;20036;-71
2021/11/22 07:59:20;;;;;;;28.35;9.73;;;5.00;88.30;;;;;;5032665;28;20063;-72
2021/11/22 08:01:46;;;;;;;25.15;8.77;;;5.00;88.20;;;;;;5033031;28;20116;-71
2021/11/22 08:04:15;;;;;;;23.67;8.75;;;5.00;88.10;;;;;;5036357;28;20541;-72
2021/11/22 08:06:46;;;;;;;16.50;6.70;;;5.10;87.90;;;;;;5034875;28;20036;-70
2021/11/22 08:09:15;;;;;;;19.15;7.13;;;5.10;87.70;;;;;;5033449;28;20056;-71
2021/11/22 08:11:48;;;;;;;20.83;6.88;;;5.20;87.50;;;;;;5042927;28;20032;-70
2021/11/22 08:14:14;;;;;;;23.10;8.15;;;5.10;87.50;;;;;;5041267;28;20041;-71
2021/11/22 08:16:40;;;;;;;28.38;7.95;;;5.10;87.50;;;;;;5036716;28;20422;-75
2021/11/22 08:19:05;;;;;;;20.10;7.60;;;5.10;87.60;;;;;;5045616;28;20037;-69
2021/11/22 08:21:31;;;;;;;21.67;8.73;;;5.20;87.40;;;;;;5039531;28;20041;-70
2021/11/22 08:23:57;;;;;;;22.63;7.90;;;5.20;87.30;;;;;;5021822;28;20531;-74
2021/11/22 08:26:22;;;;;;;23.48;9.00;;;5.30;87.10;;;;;;5026056;28;20037;-75
2021/11/22 08:28:48;;;;;;;19.88;6.97;;;5.40;87.10;;;;;;5037411;28;20460;-70
2021/11/22 08:31:14;;;;;;;18.77;7.03;;;5.40;87.10;;;;;;5047597;28;20518;-70
2021/11/22 08:33:39;;;;;;;17.50;6.70;;;5.50;86.70;;;;;;5043441;28;20037;-72
2021/11/22 08:36:05;;;;;;;16.98;5.20;;;5.60;86.30;;;;;;5034653;28;20032;-75
2021/11/22 08:38:31;;;;;;;14.65;5.43;;;5.70;85.80;;;;;;5053327;28;20736;-70
2021/11/22 08:40:56;;;;;;;15.90;5.70;;;5.80;85.50;;;;;;5056697;28;20037;-71
2021/11/22 08:43:22;;;;;;;13.93;4.90;;;5.90;85.10;;;;;;5060701;28;20125;-70
2021/11/22 08:45:48;;;;;;;13.88;5.88;;;6.00;84.60;;;;;;5060069;28;20446;-72
2021/11/22 08:48:16;;;;;;;18.00;6.20;;;6.10;84.70;;;;;;5052523;28;20044;-70
2021/11/22 08:50:41;;;;;;;16.73;6.55;;;6.10;84.60;;;;;;5047576;28;20036;-69
2021/11/22 08:53:07;;;;;;;17.80;5.43;;;6.20;84.50;;;;;;5064435;28;20040;-74
2021/11/22 08:55:33;;;;;;;18.52;5.68;;;6.20;84.10;;;;;;5046983;28;20342;-76
2021/11/22 08:57:59;;;;;;;9.73;3.95;;;6.30;83.40;;;;;;5050508;28;20085;-74
2021/11/22 09:00:29;;;;;;;14.35;4.50;;;6.40;83.20;;;;;;5049189;28;20155;-71
2021/11/22 09:02:55;;;;;;;11.38;4.05;;;6.50;83.00;;;;;;5055296;28;20105;-73
2021/11/22 09:05:21;;;;;;;10.80;5.30;;;6.50;82.50;;;;;;5047718;28;21073;-75
2021/11/22 09:07:47;;;;;;;9.60;3.25;;;6.60;82.80;;;;;;5048888;28;20562;-72
2021/11/22 09:10:13;;;;;;;10.13;3.33;;;6.70;82.30;;;;;;5056299;28;20037;-71
2021/11/22 09:12:39;;;;;;;11.48;3.17;;;6.60;81.60;;;;;;5059067;28;20033;-70
2021/11/22 09:15:05;;;;;;;5.85;2.65;;;6.60;81.90;;;;;;5058749;28;20169;-76
2021/11/22 09:17:31;;;;;;;8.90;3.22;;;6.70;80.70;;;;;;5057397;28;20029;-70
2021/11/22 09:19:57;;;;;;;8.35;3.25;;;6.80;80.50;;;;;;5064937;28;20032;-73
2021/11/22 09:22:22;;;;;;;6.70;2.97;;;6.80;80.60;;;;;;5053412;28;20037;-69
2021/11/22 09:24:48;;;;;;;5.72;2.65;;;7.10;80.80;;;;;;5041673;28;20117;-71
2021/11/22 09:27:14;;;;;;;8.82;3.88;;;7.10;79.70;;;;;;5039009;28;20140;-75
2021/11/22 09:29:40;;;;;;;11.70;3.58;;;7.10;79.20;;;;;;5041899;28;20140;-71
2021/11/22 09:32:06;;;;;;;9.20;3.20;;;7.10;78.90;;;;;;5046796;28;20112;-69
2021/11/22 09:34:31;;;;;;;8.10;3.03;;;7.10;78.10;;;;;;5041266;28;20037;-69
2021/11/22 09:36:57;;;;;;;11.48;3.60;;;7.10;77.70;;;;;;5042179;28;20044;-71
2021/11/22 09:39:23;;;;;;;9.55;3.30;;;7.20;78.20;;;;;;5037938;28;20027;-72
2021/11/22 09:41:50;;;;;;;9.82;2.85;;;7.30;78.30;;;;;;5041606;28;20424;-71
2021/11/22 09:44:20;;;;;;;9.52;3.55;;;7.30;77.30;;;;;;5037759;28;20030;-72
2021/11/22 09:46:46;;;;;;;8.88;2.88;;;7.40;77.40;;;;;;5041206;28;20096;-73
2021/11/22 09:49:12;;;;;;;10.00;3.25;;;7.60;77.10;;;;;;5040371;28;20123;-70
2021/11/22 09:51:38;;;;;;;9.80;3.03;;;7.40;75.90;;;;;;5044575;28;20365;-70
2021/11/22 09:54:04;;;;;;;8.88;3.00;;;7.40;76.80;;;;;;5052453;28;20045;-74
2021/11/22 09:56:32;;;;;;;9.85;3.15;;;7.60;77.00;;;;;;5049450;28;20045;-72
2021/11/22 09:58:58;;;;;;;8.32;3.10;;;7.70;75.80;;;;;;5044068;28;20115;-70
2021/11/22 10:01:24;;;;;;;6.88;3.10;;;7.80;74.80;;;;;;5053469;28;20039;-70
2021/11/22 10:04:00;;;;;;;10.30;3.15;;;8.00;75.30;;;;;;5042833;28;20605;-72
2021/11/22 10:06:26;;;;;;;9.15;2.63;;;7.90;74.80;;;;;;5065286;28;20543;-71
2021/11/22 10:08:52;;;;;;;8.20;2.58;;;8.00;73.60;;;;;;5047279;28;20063;-70
2021/11/22 10:11:17;;;;;;;8.75;2.95;;;8.00;73.10;;;;;;5042178;28;20034;-74
2021/11/22 10:13:46;;;;;;;7.28;2.85;;;8.00;72.60;;;;;;5040095;28;20052;-71
2021/11/22 10:16:11;;;;;;;8.40;3.45;;;7.90;73.00;;;;;;5057306;28;20032;-71
2021/11/22 10:18:43;;;;;;;9.95;3.00;;;7.90;72.90;;;;;;5038146;28;20041;-71
2021/11/22 10:21:11;;;;;;;5.85;2.53;;;8.00;73.30;;;;;;5035628;28;20114;-70
2021/11/22 10:23:39;;;;;;;6.18;2.40;;;7.90;73.40;;;;;;5039645;28;20075;-73
2021/11/22 10:26:10;;;;;;;7.13;2.53;;;7.90;72.40;;;;;;5054347;28;20033;-72
2021/11/22 10:28:46;;;;;;;6.43;2.55;;;7.90;72.00;;;;;;5055455;28;20067;-74
2021/11/22 10:31:15;;;;;;;8.75;2.35;;;7.90;73.20;;;;;;5056845;28;20037;-72
2021/11/22 10:33:43;;;;;;;6.35;2.53;;;8.10;73.10;;;;;;5061090;28;20488;-75
2021/11/22 10:36:12;;;;;;;7.55;2.40;;;8.40;72.70;;;;;;5049060;28;20048;-71
2021/11/22 10:38:41;;;;;;;8.35;2.47;;;8.30;71.30;;;;;;5044360;28;20047;-70
2021/11/22 10:41:16;;;;;;;7.60;2.25;;;8.40;71.50;;;;;;5043436;28;20044;-70
2021/11/22 10:43:52;;;;;;;5.38;2.33;;;8.30;70.90;;;;;;5036855;28;20490;-69
2021/11/22 10:46:28;;;;;;;7.47;2.42;;;8.20;71.40;;;;;;5041625;28;20048;-69
2021/11/22 10:49:17;;;;;;;6.35;2.20;;;8.50;71.80;;;;;;5054975;28;20531;-73
2021/11/22 10:51:46;;;;;;;7.60;2.10;;;8.40;70.00;;;;;;5051525;28;20093;-71
2021/11/22 10:54:19;;;;;;;5.85;2.00;;;8.30;70.30;;;;;;5038710;28;20072;-71
2021/11/22 10:56:52;;;;;;;6.57;2.10;;;8.20;69.90;;;;;;5045465;28;20029;-70
2021/11/22 10:59:22;;;;;;;7.10;2.25;;;8.20;70.90;;;;;;5048034;28;20073;-70
2021/11/22 11:01:50;;;;;;;6.22;1.98;;;8.40;70.70;;;;;;5057767;28;20044;-78
2021/11/22 11:04:24;;;;;;;6.38;2.03;;;8.60;70.80;;;;;;5068595;28;20029;-70
2021/11/22 11:06:59;;;;;;;;;;;8.80;70.50;;;;;;5050095;28;20053;-72
2021/11/22 11:09:31;;;;;;;6.60;1.85;;;8.80;69.50;;;;;;5055156;28;19909;-70
2021/11/22 11:12:18;;;;;;;7.45;2.42;;;8.60;67.10;;;;;;5040810;28;20044;-70
2021/11/22 11:14:46;;;;;;;5.10;2.00;;;8.60;68.00;;;;;;5042023;28;20562;-70
2021/11/22 11:17:28;;;;;;;5.95;1.90;;;8.40;68.10;;;;;;5048543;28;20162;-69
2021/11/22 11:19:57;;;;;;;4.47;1.98;;;8.50;67.70;;;;;;5056886;28;20140;-76
2021/11/22 11:22:28;;;;;;;7.40;2.60;;;8.50;68.30;;;;;;5030860;28;20479;-77
2021/11/22 11:24:57;;;;;;;6.68;2.00;;;8.70;68.30;;;;;;5034617;28;20372;-69
2021/11/22 11:27:26;;;;;;;6.15;2.63;;;8.80;68.60;;;;;;5054993;28;20033;-70
2021/11/22 11:29:53;;;;;;;6.30;1.85;;;8.80;69.20;;;;;;5033415;28;20059;-72
2021/11/22 11:32:19;;;;;;;8.77;2.13;;;8.70;67.40;;;;;;5031436;28;20128;-72
2021/11/22 11:34:50;;;;;;;5.57;1.95;;;8.70;67.50;;;;;;5034495;28;20056;-77
2021/11/22 11:37:31;;;;;;;8.10;2.35;;;8.60;68.30;;;;;;5029292;28;20140;-71
2021/11/22 11:40:03;;;;;;;5.35;2.15;;;8.70;68.30;;;;;;5049147;28;20929;-72
2021/11/22 11:42:54;;;;;;;5.88;2.05;;;8.80;67.80;;;;;;5063863;28;20052;-72
2021/11/22 11:45:25;;;;;;;5.07;2.22;;;8.80;67.40;;;;;;5041278;28;20037;-78
2021/11/22 11:48:03;;;;;;;5.88;2.22;;;8.60;66.40;;;;;;5039396;28;20472;-70
2021/11/22 11:50:33;;;;;;;6.32;1.83;;;8.50;67.00;;;;;;5052912;28;20919;-73
2021/11/22 11:53:03;;;;;;;8.27;2.05;;;8.70;67.30;;;;;;5027007;28;20052;-76
2021/11/22 11:55:29;;;;;;;5.05;2.13;;;8.90;67.00;;;;;;5044817;28;20043;-76
2021/11/22 11:58:19;;;;;;;6.82;2.20;;;8.90;66.50;;;;;;5054433;28;20040;-73
2021/11/22 12:00:51;;;;;;;7.47;2.35;;;8.70;64.30;;;;;;5043944;28;20072;-76
2021/11/22 12:03:16;;;;;;;6.25;2.65;;;8.70;65.40;;;;;;5053025;28;20053;-73
2021/11/22 12:05:45;;;;;;;6.47;2.17;;;8.80;65.90;;;;;;5054623;28;20479;-81
2021/11/22 12:08:26;;;;;;;10.02;2.90;;;8.90;65.00;;;;;;5041201;28;20708;-82
2021/11/22 12:10:53;;;;;;;7.03;2.15;;;8.90;65.60;;;;;;5028995;28;20042;-72
2021/11/22 12:13:19;;;;;;;6.35;2.30;;;8.90;65.70;;;;;;5019041;28;20041;-74
2021/11/22 12:15:47;;;;;;;6.47;2.25;;;9.00;65.00;;;;;;5020384;28;20037;-74
2021/11/22 12:18:23;;;;;;;8.50;2.30;;;8.90;62.70;;;;;;5021218;28;20037;-77
2021/11/22 12:20:57;;;;;;;5.05;2.00;;;8.90;63.50;;;;;;5029930;28;20044;-76
2021/11/22 12:23:28;;;;;;;5.85;2.22;;;8.70;62.10;;;;;;5044864;28;20058;-73
2021/11/22 12:26:00;;;;;;;6.00;1.95;;;8.80;62.70;;;;;;5042964;28;20607;-78
2021/11/22 12:28:30;;;;;;;7.22;2.53;;;8.70;63.60;;;;;;5043587;28;20051;-77
2021/11/22 12:31:03;;;;;;;4.88;1.50;;;8.80;62.90;;;;;;5053903;28;20095;-75
2021/11/22 12:33:30;;;;;;;4.15;1.77;;;8.90;63.00;;;;;;5054814;28;20354;-72
2021/11/22 12:36:12;;;;;;;5.90;2.10;;;9.10;63.40;;;;;;5051022;28;20036;-72
2021/11/22 12:38:41;;;;;;;3.00;1.35;;;9.10;62.90;;;;;;5055045;28;20033;-71
2021/11/22 12:41:11;;;;;;;4.97;1.40;;;9.00;60.80;;;;;;5061534;28;20087;-73
2021/11/22 12:43:46;;;;;;;3.97;1.33;;;9.00;61.60;;;;;;5037704;28;20041;-70
2021/11/22 12:46:16;;;;;;;5.53;1.60;;;8.90;61.00;;;;;;5062927;28;20029;-69
2021/11/22 12:48:46;;;;;;;6.18;2.17;;;8.90;61.60;;;;;;5039341;28;20039;-73
2021/11/22 12:51:17;;;;;;;6.45;1.90;;;9.00;62.50;;;;;;5037885;28;20484;-71